Millarton, North Dakota
Current Conditions -  °F | °C
As of 8:56 AM on Sunday 28 Dec 2014 (Local Time) from KJMS Reporting Station
Overcast Overcast  
Wind Chill: -11°   Ceiling: 1100
Heat Index:   Visibility: 10mi
Dew Point: -1°   Wind: 10mph
Humidity: 80%   Direction: 60°ENE
Pressure: 30.19"   Gusts: NA
Location:  46.6526°N, 98.6214°W
Report Text: KJMS 281456Z AUTO 06009KT 10SM OVC011 M16/M18 A3019 RMK AO2 SLP259 T11561183 53017
Loading
Personal Weather Stations






























Interactive Weather Map New forecast layout! Learn more

10-Day Weather Forecast

Advertisements
Track Severe Weather on mobile